首页
METAR-TAF:

METAR-TAF

机场 :

McEntire Joint National Guard Base

Eastover, 南卡罗来纳州, 美国

纬度: 33-55N, 经度: 080-48W, 海拔: 77米

当前天气观测

该预报发布于1小时和13分钟前的18:56 UTC
风速10节,风向西转西南
温度 27°C
湿度 23%
气压 1016 hPa
能見度: 16.1公里
少量云层高于14000英尺
散云层高于18000英尺
多云层高于22000英尺

METAR: KMMT 301856Z 24010KT 10SM FEW140 SCT180 BKN220 27/04 A3001 RMK AO2A SLP163 T02660044 $

时间: 16:09 (20:09 UTC)

预报

该预报发布于5小时和9分钟前的15:00 UTC
预报有效从30日的 15点(UTC)到 31日的 21点(UTC)
风速6节,风向多变
能见度10公里或以上
多云层高于15000英尺
多云层高于25000英尺
成为
从 31日的 15点(UTC)到 31日的 16点(UTC)
风速10节,风向东转东北,有时为15节阵风
能见度10公里或以上
散云层高于3500英尺
多云层高于12000英尺
阴天层高于22000英尺
成为
从 31日的 19点(UTC)到 31日的 20点(UTC)
风速10节,风向东转东北,有时为15节阵风
能見度: 8000
多云层高于3000英尺
阴天层高于10000英尺
小雨

TAF: KMMT 301500Z 3015/3121 VRB06KT 9999 BKN150 BKN250 QNH2992INS BECMG 3115/3116 06010G15KT 9999 SCT035 BKN120 OVC220 QNH2982INS BECMG 3119/3120 07010G15KT 8000 -RA BKN030 OVC100 QNH2976INS TX26/3019Z TN12/3112Z

超过4000个机场的气象观测和天气预报(METAR&TAF报告)。

可查询的气象台以黄色和红色小点在地图上表示。

将鼠标移到小点上方,可查看气象台名称。

然后点击查看天气观测和预报。

如需切换地图:点击带黑十字的绿色按钮放大地图;点击带横线的绿色按钮缩小地图;或者点击绿色箭头查看邻近地区的地图。


METAR-TAF: